sensor_id;sensor_type;location;lat;lon;timestamp;temperature;humidity
51825;DHT22;37879;52.986;6.282;2023-03-26T00:01:08;7.30;99.90
51825;DHT22;37879;52.986;6.282;2023-03-26T00:03:35;7.40;99.90
51825;DHT22;37879;52.986;6.282;2023-03-26T00:08:32;7.40;99.90
51825;DHT22;37879;52.986;6.282;2023-03-26T00:10:58;7.60;99.90
51825;DHT22;37879;52.986;6.282;2023-03-26T00:13:24;7.50;99.90
51825;DHT22;37879;52.986;6.282;2023-03-26T00:15:50;7.50;99.90
51825;DHT22;37879;52.986;6.282;2023-03-26T00:18:17;7.50;99.90
51825;DHT22;37879;52.986;6.282;2023-03-26T00:20:46;7.50;99.90
51825;DHT22;37879;52.986;6.282;2023-03-26T00:23:12;7.50;99.90
51825;DHT22;37879;52.986;6.282;2023-03-26T00:25:38;7.80;99.90
51825;DHT22;37879;52.986;6.282;2023-03-26T00:28:07;7.50;99.90
51825;DHT22;37879;52.986;6.282;2023-03-26T00:30:33;7.50;99.90
51825;DHT22;37879;52.986;6.282;2023-03-26T00:33:06;7.50;99.90
51825;DHT22;37879;52.986;6.282;2023-03-26T00:35:35;7.70;99.90
51825;DHT22;37879;52.986;6.282;2023-03-26T00:38:01;7.60;99.90
51825;DHT22;37879;52.986;6.282;2023-03-26T00:40:27;7.50;99.90
51825;DHT22;37879;52.986;6.282;2023-03-26T00:42:54;7.50;99.90
51825;DHT22;37879;52.986;6.282;2023-03-26T00:45:19;7.50;99.90
51825;DHT22;37879;52.986;6.282;2023-03-26T00:47:46;7.50;99.90
51825;DHT22;37879;52.986;6.282;2023-03-26T00:50:12;7.40;99.90
51825;DHT22;37879;52.986;6.282;2023-03-26T00:52:44;7.70;99.90
51825;DHT22;37879;52.986;6.282;2023-03-26T00:55:11;7.40;99.90
51825;DHT22;37879;52.986;6.282;2023-03-26T00:57:37;7.40;99.90
51825;DHT22;37879;52.986;6.282;2023-03-26T01:00:06;7.70;99.90
51825;DHT22;37879;52.986;6.282;2023-03-26T01:02:34;7.30;99.90
51825;DHT22;37879;52.986;6.282;2023-03-26T01:05:00;7.30;99.90
51825;DHT22;37879;52.986;6.282;2023-03-26T01:07:45;7.30;99.90
51825;DHT22;37879;52.986;6.282;2023-03-26T01:10:11;7.20;99.90
51825;DHT22;37879;52.986;6.282;2023-03-26T01:12:39;7.20;99.90
51825;DHT22;37879;52.986;6.282;2023-03-26T01:15:05;7.60;99.90
51825;DHT22;37879;52.986;6.282;2023-03-26T01:17:32;7.10;99.90
51825;DHT22;37879;52.986;6.282;2023-03-26T01:20:20;7.10;99.90
51825;DHT22;37879;52.986;6.282;2023-03-26T01:22:54;7.00;99.90
51825;DHT22;37879;52.986;6.282;2023-03-26T01:25:28;7.00;99.90
51825;DHT22;37879;52.986;6.282;2023-03-26T01:27:56;7.10;99.90
51825;DHT22;37879;52.986;6.282;2023-03-26T01:30:36;6.90;99.90
51825;DHT22;37879;52.986;6.282;2023-03-26T01:36:35;6.70;99.90
51825;DHT22;37879;52.986;6.282;2023-03-26T01:39:21;6.70;99.90
51825;DHT22;37879;52.986;6.282;2023-03-26T01:42:18;6.60;99.90
51825;DHT22;37879;52.986;6.282;2023-03-26T01:44:56;6.60;99.90
51825;DHT22;37879;52.986;6.282;2023-03-26T01:47:24;6.50;99.90
51825;DHT22;37879;52.986;6.282;2023-03-26T01:49:50;6.50;99.90
51825;DHT22;37879;52.986;6.282;2023-03-26T01:52:19;6.50;99.90
51825;DHT22;37879;52.986;6.282;2023-03-26T01:54:46;6.40;99.90
51825;DHT22;37879;52.986;6.282;2023-03-26T02:02:55;7.00;99.90
51825;DHT22;37879;52.986;6.282;2023-03-26T02:08:36;6.50;99.90
51825;DHT22;37879;52.986;6.282;2023-03-26T02:11:09;6.50;99.90
51825;DHT22;37879;52.986;6.282;2023-03-26T02:13:36;6.60;99.90
51825;DHT22;37879;52.986;6.282;2023-03-26T02:16:05;6.60;99.90
51825;DHT22;37879;52.986;6.282;2023-03-26T02:18:30;6.60;99.90
51825;DHT22;37879;52.986;6.282;2023-03-26T02:21:12;6.70;99.90
51825;DHT22;37879;52.986;6.282;2023-03-26T02:23:40;6.70;99.90
51825;DHT22;37879;52.986;6.282;2023-03-26T02:26:10;6.70;99.90
51825;DHT22;37879;52.986;6.282;2023-03-26T02:28:36;6.70;99.90
51825;DHT22;37879;52.986;6.282;2023-03-26T02:31:03;7.10;99.90
51825;DHT22;37879;52.986;6.282;2023-03-26T02:33:29;6.70;99.90
51825;DHT22;37879;52.986;6.282;2023-03-26T02:35:56;6.80;99.90
51825;DHT22;37879;52.986;6.282;2023-03-26T02:38:27;6.80;99.90
51825;DHT22;37879;52.986;6.282;2023-03-26T02:40:54;6.80;99.90
51825;DHT22;37879;52.986;6.282;2023-03-26T02:43:20;6.80;99.90
51825;DHT22;37879;52.986;6.282;2023-03-26T02:45:46;6.80;99.90
51825;DHT22;37879;52.986;6.282;2023-03-26T02:48:12;6.80;99.90
51825;DHT22;37879;52.986;6.282;2023-03-26T02:50:39;6.90;99.90
51825;DHT22;37879;52.986;6.282;2023-03-26T02:53:05;6.90;99.90
51825;DHT22;37879;52.986;6.282;2023-03-26T02:55:31;6.80;99.90
51825;DHT22;37879;52.986;6.282;2023-03-26T02:57:57;6.80;99.90
51825;DHT22;37879;52.986;6.282;2023-03-26T03:00:23;6.80;99.90
51825;DHT22;37879;52.986;6.282;2023-03-26T03:02:50;6.70;99.90
51825;DHT22;37879;52.986;6.282;2023-03-26T03:05:17;6.60;99.90
51825;DHT22;37879;52.986;6.282;2023-03-26T03:07:44;6.40;99.90
51825;DHT22;37879;52.986;6.282;2023-03-26T03:10:12;6.40;99.90
51825;DHT22;37879;52.986;6.282;2023-03-26T03:12:39;6.90;99.90
51825;DHT22;37879;52.986;6.282;2023-03-26T03:15:06;6.20;99.90
51825;DHT22;37879;52.986;6.282;2023-03-26T03:17:32;6.20;99.90
51825;DHT22;37879;52.986;6.282;2023-03-26T03:19:57;6.20;99.90
51825;DHT22;37879;52.986;6.282;2023-03-26T03:22:23;6.10;99.90
51825;DHT22;37879;52.986;6.282;2023-03-26T03:24:49;6.10;99.90
51825;DHT22;37879;52.986;6.282;2023-03-26T03:27:17;6.10;99.90
51825;DHT22;37879;52.986;6.282;2023-03-26T03:29:45;6.00;99.90
51825;DHT22;37879;52.986;6.282;2023-03-26T03:32:11;6.00;99.90
51825;DHT22;37879;52.986;6.282;2023-03-26T03:34:36;6.00;99.90
51825;DHT22;37879;52.986;6.282;2023-03-26T03:37:04;6.00;99.90
51825;DHT22;37879;52.986;6.282;2023-03-26T03:39:29;6.20;99.90
51825;DHT22;37879;52.986;6.282;2023-03-26T03:41:55;5.90;99.90
51825;DHT22;37879;52.986;6.282;2023-03-26T03:44:20;6.00;99.90
51825;DHT22;37879;52.986;6.282;2023-03-26T03:46:46;5.90;99.90
51825;DHT22;37879;52.986;6.282;2023-03-26T03:49:13;6.00;99.90
51825;DHT22;37879;52.986;6.282;2023-03-26T03:51:39;6.00;99.90
51825;DHT22;37879;52.986;6.282;2023-03-26T03:54:06;7.60;99.90
51825;DHT22;37879;52.986;6.282;2023-03-26T03:56:32;5.90;99.90
51825;DHT22;37879;52.986;6.282;2023-03-26T03:58:58;5.90;99.90
51825;DHT22;37879;52.986;6.282;2023-03-26T04:01:24;5.90;99.90
51825;DHT22;37879;52.986;6.282;2023-03-26T04:03:49;5.90;99.90
51825;DHT22;37879;52.986;6.282;2023-03-26T04:06:15;5.90;99.90
51825;DHT22;37879;52.986;6.282;2023-03-26T04:08:44;5.90;99.90
51825;DHT22;37879;52.986;6.282;2023-03-26T04:11:11;5.90;99.90
51825;DHT22;37879;52.986;6.282;2023-03-26T04:13:37;5.90;99.90
51825;DHT22;37879;52.986;6.282;2023-03-26T04:16:04;5.90;99.90
51825;DHT22;37879;52.986;6.282;2023-03-26T04:18:29;5.90;99.90
51825;DHT22;37879;52.986;6.282;2023-03-26T04:20:57;5.90;99.90
51825;DHT22;37879;52.986;6.282;2023-03-26T04:23:28;5.90;99.90
51825;DHT22;37879;52.986;6.282;2023-03-26T04:25:54;6.00;99.90
51825;DHT22;37879;52.986;6.282;2023-03-26T04:28:43;6.00;99.90
51825;DHT22;37879;52.986;6.282;2023-03-26T04:31:12;6.00;99.90
51825;DHT22;37879;52.986;6.282;2023-03-26T04:33:45;6.00;99.90
51825;DHT22;37879;52.986;6.282;2023-03-26T04:36:12;6.00;99.90
51825;DHT22;37879;52.986;6.282;2023-03-26T04:38:41;5.90;99.90
51825;DHT22;37879;52.986;6.282;2023-03-26T04:41:10;5.90;99.90
51825;DHT22;37879;52.986;6.282;2023-03-26T04:43:36;5.10;99.90
51825;DHT22;37879;52.986;6.282;2023-03-26T04:46:15;6.30;99.90
51825;DHT22;37879;52.986;6.282;2023-03-26T04:48:43;5.90;99.90
51825;DHT22;37879;52.986;6.282;2023-03-26T04:51:12;6.40;99.90
51825;DHT22;37879;52.986;6.282;2023-03-26T04:53:50;6.00;99.90
51825;DHT22;37879;52.986;6.282;2023-03-26T04:59:12;5.90;99.90
51825;DHT22;37879;52.986;6.282;2023-03-26T05:01:40;6.00;99.90
51825;DHT22;37879;52.986;6.282;2023-03-26T05:04:06;5.90;99.90
51825;DHT22;37879;52.986;6.282;2023-03-26T05:06:32;6.00;99.90
51825;DHT22;37879;52.986;6.282;2023-03-26T05:08:59;6.00;99.90
51825;DHT22;37879;52.986;6.282;2023-03-26T05:11:26;6.00;99.90
51825;DHT22;37879;52.986;6.282;2023-03-26T05:13:52;6.00;99.90
51825;DHT22;37879;52.986;6.282;2023-03-26T05:16:18;6.00;99.90
51825;DHT22;37879;52.986;6.282;2023-03-26T05:18:44;6.10;99.90
51825;DHT22;37879;52.986;6.282;2023-03-26T05:21:11;6.10;99.90
51825;DHT22;37879;52.986;6.282;2023-03-26T05:23:36;6.10;99.90
51825;DHT22;37879;52.986;6.282;2023-03-26T05:26:02;6.10;99.90
51825;DHT22;37879;52.986;6.282;2023-03-26T05:28:28;6.10;99.90
51825;DHT22;37879;52.986;6.282;2023-03-26T05:30:53;6.20;99.90
51825;DHT22;37879;52.986;6.282;2023-03-26T05:33:20;6.10;99.90
51825;DHT22;37879;52.986;6.282;2023-03-26T05:35:46;4.90;99.90
51825;DHT22;37879;52.986;6.282;2023-03-26T05:38:14;6.10;99.90
51825;DHT22;37879;52.986;6.282;2023-03-26T05:40:39;6.10;99.90
51825;DHT22;37879;52.986;6.282;2023-03-26T05:43:05;6.10;99.90
51825;DHT22;37879;52.986;6.282;2023-03-26T05:45:31;6.20;99.90
51825;DHT22;37879;52.986;6.282;2023-03-26T05:47:56;6.20;99.90
51825;DHT22;37879;52.986;6.282;2023-03-26T05:50:23;6.20;99.90
51825;DHT22;37879;52.986;6.282;2023-03-26T05:52:49;6.20;99.90
51825;DHT22;37879;52.986;6.282;2023-03-26T05:55:15;6.20;99.90
51825;DHT22;37879;52.986;6.282;2023-03-26T05:57:42;6.20;99.90
51825;DHT22;37879;52.986;6.282;2023-03-26T06:00:08;6.20;99.90
51825;DHT22;37879;52.986;6.282;2023-03-26T06:02:35;6.20;99.90
51825;DHT22;37879;52.986;6.282;2023-03-26T06:05:01;6.30;99.90
51825;DHT22;37879;52.986;6.282;2023-03-26T06:07:28;6.30;99.90
51825;DHT22;37879;52.986;6.282;2023-03-26T06:09:55;6.30;99.90
51825;DHT22;37879;52.986;6.282;2023-03-26T06:12:21;6.30;99.90
51825;DHT22;37879;52.986;6.282;2023-03-26T06:14:47;6.30;99.90
51825;DHT22;37879;52.986;6.282;2023-03-26T06:17:12;6.30;99.90
51825;DHT22;37879;52.986;6.282;2023-03-26T06:19:38;6.70;99.90
51825;DHT22;37879;52.986;6.282;2023-03-26T06:22:04;6.40;99.90
51825;DHT22;37879;52.986;6.282;2023-03-26T06:24:30;6.30;99.90
51825;DHT22;37879;52.986;6.282;2023-03-26T06:26:56;6.30;99.90
51825;DHT22;37879;52.986;6.282;2023-03-26T06:29:21;6.30;99.90
51825;DHT22;37879;52.986;6.282;2023-03-26T06:31:47;7.00;99.90
51825;DHT22;37879;52.986;6.282;2023-03-26T06:34:12;6.30;99.90
51825;DHT22;37879;52.986;6.282;2023-03-26T06:36:38;6.90;99.90
51825;DHT22;37879;52.986;6.282;2023-03-26T06:39:04;6.30;99.90
51825;DHT22;37879;52.986;6.282;2023-03-26T06:41:32;6.40;99.90
51825;DHT22;37879;52.986;6.282;2023-03-26T06:43:59;6.30;99.90
51825;DHT22;37879;52.986;6.282;2023-03-26T06:46:25;6.80;99.90
51825;DHT22;37879;52.986;6.282;2023-03-26T06:48:50;6.30;99.90
51825;DHT22;37879;52.986;6.282;2023-03-26T06:51:16;6.30;99.90
51825;DHT22;37879;52.986;6.282;2023-03-26T06:53:42;6.30;99.90
51825;DHT22;37879;52.986;6.282;2023-03-26T06:56:08;6.30;99.90
51825;DHT22;37879;52.986;6.282;2023-03-26T06:58:34;6.40;99.90
51825;DHT22;37879;52.986;6.282;2023-03-26T07:01:00;6.50;99.90
51825;DHT22;37879;52.986;6.282;2023-03-26T07:03:26;6.50;99.90
51825;DHT22;37879;52.986;6.282;2023-03-26T07:05:51;7.70;99.90
51825;DHT22;37879;52.986;6.282;2023-03-26T07:08:17;6.50;99.90
51825;DHT22;37879;52.986;6.282;2023-03-26T07:10:43;6.50;99.90
51825;DHT22;37879;52.986;6.282;2023-03-26T07:13:09;6.50;99.90
51825;DHT22;37879;52.986;6.282;2023-03-26T07:15:34;7.10;99.90
51825;DHT22;37879;52.986;6.282;2023-03-26T07:18:00;6.50;99.90
51825;DHT22;37879;52.986;6.282;2023-03-26T07:20:26;6.50;99.90
51825;DHT22;37879;52.986;6.282;2023-03-26T07:22:52;6.60;99.90
51825;DHT22;37879;52.986;6.282;2023-03-26T07:25:18;6.60;99.90
51825;DHT22;37879;52.986;6.282;2023-03-26T07:27:52;6.70;99.90
51825;DHT22;37879;52.986;6.282;2023-03-26T07:30:26;7.60;99.90
51825;DHT22;37879;52.986;6.282;2023-03-26T07:33:07;6.70;99.90
51825;DHT22;37879;52.986;6.282;2023-03-26T07:35:45;6.70;99.90
51825;DHT22;37879;52.986;6.282;2023-03-26T07:38:38;6.70;99.90
51825;DHT22;37879;52.986;6.282;2023-03-26T07:46:34;6.90;99.90
51825;DHT22;37879;52.986;6.282;2023-03-26T07:49:02;6.90;99.90
51825;DHT22;37879;52.986;6.282;2023-03-26T07:51:29;6.90;99.90
51825;DHT22;37879;52.986;6.282;2023-03-26T07:53:55;6.90;99.90
51825;DHT22;37879;52.986;6.282;2023-03-26T07:56:26;7.00;99.90
51825;DHT22;37879;52.986;6.282;2023-03-26T07:59:19;7.00;99.90
51825;DHT22;37879;52.986;6.282;2023-03-26T08:05:25;5.80;99.90
51825;DHT22;37879;52.986;6.282;2023-03-26T08:08:24;7.20;99.90
51825;DHT22;37879;52.986;6.282;2023-03-26T08:16:23;7.40;99.90
51825;DHT22;37879;52.986;6.282;2023-03-26T08:19:14;7.30;99.90
51825;DHT22;37879;52.986;6.282;2023-03-26T08:28:13;7.30;99.90
51825;DHT22;37879;52.986;6.282;2023-03-26T08:30:35;7.40;99.90
51825;DHT22;37879;52.986;6.282;2023-03-26T08:35:35;7.50;99.90
51825;DHT22;37879;52.986;6.282;2023-03-26T08:38:09;7.50;99.90
51825;DHT22;37879;52.986;6.282;2023-03-26T08:43:36;7.50;99.90
51825;DHT22;37879;52.986;6.282;2023-03-26T08:52:13;7.50;99.90
51825;DHT22;37879;52.986;6.282;2023-03-26T09:00:34;7.70;99.90
51825;DHT22;37879;52.986;6.282;2023-03-26T09:17:13;7.60;99.90
51825;DHT22;37879;52.986;6.282;2023-03-26T09:31:02;7.70;99.90
51825;DHT22;37879;52.986;6.282;2023-03-26T09:37:03;7.90;99.90
51825;DHT22;37879;52.986;6.282;2023-03-26T09:42:10;8.20;99.90
51825;DHT22;37879;52.986;6.282;2023-03-26T10:00:56;8.20;99.90
51825;DHT22;37879;52.986;6.282;2023-03-26T10:11:41;8.20;99.90
51825;DHT22;37879;52.986;6.282;2023-03-26T10:22:54;8.40;99.90
51825;DHT22;37879;52.986;6.282;2023-03-26T10:36:26;8.40;99.90
51825;DHT22;37879;52.986;6.282;2023-03-26T10:39:16;8.30;99.90
51825;DHT22;37879;52.986;6.282;2023-03-26T10:44:54;8.30;99.90
51825;DHT22;37879;52.986;6.282;2023-03-26T10:53:00;8.30;99.90
51825;DHT22;37879;52.986;6.282;2023-03-26T10:55:30;8.30;99.90
51825;DHT22;37879;52.986;6.282;2023-03-26T11:00:38;8.40;99.90
51825;DHT22;37879;52.986;6.282;2023-03-26T11:03:24;8.40;99.90
51825;DHT22;37879;52.986;6.282;2023-03-26T11:08:48;8.40;99.90
51825;DHT22;37879;52.986;6.282;2023-03-26T11:11:57;8.40;99.90
51825;DHT22;37879;52.986;6.282;2023-03-26T11:17:23;8.80;99.90
51825;DHT22;37879;52.986;6.282;2023-03-26T11:25:17;9.00;99.90
51825;DHT22;37879;52.986;6.282;2023-03-26T11:33:28;8.50;99.90
51825;DHT22;37879;52.986;6.282;2023-03-26T11:36:02;8.50;99.90
51825;DHT22;37879;52.986;6.282;2023-03-26T11:38:46;8.50;99.90
51825;DHT22;37879;52.986;6.282;2023-03-26T11:41:23;8.40;99.90
51825;DHT22;37879;52.986;6.282;2023-03-26T11:44:17;8.40;99.90
51825;DHT22;37879;52.986;6.282;2023-03-26T11:46:42;9.20;99.90
51825;DHT22;37879;52.986;6.282;2023-03-26T11:49:11;9.20;99.90
51825;DHT22;37879;52.986;6.282;2023-03-26T11:51:38;8.20;99.90
51825;DHT22;37879;52.986;6.282;2023-03-26T11:54:06;8.10;99.90
51825;DHT22;37879;52.986;6.282;2023-03-26T11:56:48;8.50;99.90
51825;DHT22;37879;52.986;6.282;2023-03-26T11:59:28;8.10;99.90
51825;DHT22;37879;52.986;6.282;2023-03-26T12:04:27;8.40;99.90
51825;DHT22;37879;52.986;6.282;2023-03-26T12:10:29;8.50;99.90
51825;DHT22;37879;52.986;6.282;2023-03-26T12:13:00;8.40;99.90
51825;DHT22;37879;52.986;6.282;2023-03-26T12:15:27;8.30;99.90
51825;DHT22;37879;52.986;6.282;2023-03-26T12:17:56;8.30;99.90
51825;DHT22;37879;52.986;6.282;2023-03-26T12:20:29;8.40;99.90
51825;DHT22;37879;52.986;6.282;2023-03-26T12:23:01;8.40;99.90
51825;DHT22;37879;52.986;6.282;2023-03-26T12:25:29;8.40;99.90
51825;DHT22;37879;52.986;6.282;2023-03-26T12:30:36;8.50;99.90
51825;DHT22;37879;52.986;6.282;2023-03-26T12:33:12;8.40;99.90
51825;DHT22;37879;52.986;6.282;2023-03-26T12:35:41;8.30;99.90
51825;DHT22;37879;52.986;6.282;2023-03-26T12:38:20;8.60;99.90
51825;DHT22;37879;52.986;6.282;2023-03-26T12:40:47;8.40;99.90
51825;DHT22;37879;52.986;6.282;2023-03-26T12:43:20;8.40;99.90
51825;DHT22;37879;52.986;6.282;2023-03-26T12:45:49;8.20;99.90
51825;DHT22;37879;52.986;6.282;2023-03-26T12:48:16;8.40;99.90
51825;DHT22;37879;52.986;6.282;2023-03-26T12:51:14;8.40;99.90
51825;DHT22;37879;52.986;6.282;2023-03-26T12:56:30;8.30;99.90
51825;DHT22;37879;52.986;6.282;2023-03-26T13:01:54;8.30;99.90
51825;DHT22;37879;52.986;6.282;2023-03-26T13:04:38;8.20;99.90
51825;DHT22;37879;52.986;6.282;2023-03-26T13:07:18;8.30;99.90
51825;DHT22;37879;52.986;6.282;2023-03-26T13:09:55;8.30;99.90
51825;DHT22;37879;52.986;6.282;2023-03-26T13:12:44;8.30;99.90
51825;DHT22;37879;52.986;6.282;2023-03-26T13:15:23;8.20;99.90
51825;DHT22;37879;52.986;6.282;2023-03-26T13:30:19;8.20;99.90
51825;DHT22;37879;52.986;6.282;2023-03-26T13:32:58;8.10;99.90
51825;DHT22;37879;52.986;6.282;2023-03-26T13:35:35;8.20;99.90
51825;DHT22;37879;52.986;6.282;2023-03-26T13:41:08;8.20;99.90
51825;DHT22;37879;52.986;6.282;2023-03-26T13:49:12;9.00;99.90
51825;DHT22;37879;52.986;6.282;2023-03-26T13:51:50;8.00;99.90
51825;DHT22;37879;52.986;6.282;2023-03-26T13:54:19;7.90;99.90
51825;DHT22;37879;52.986;6.282;2023-03-26T13:57:08;8.50;99.90
51825;DHT22;37879;52.986;6.282;2023-03-26T13:59:37;8.00;99.90
51825;DHT22;37879;52.986;6.282;2023-03-26T14:02:10;8.10;99.90
51825;DHT22;37879;52.986;6.282;2023-03-26T14:04:42;8.10;99.90
51825;DHT22;37879;52.986;6.282;2023-03-26T14:07:21;8.10;99.90
51825;DHT22;37879;52.986;6.282;2023-03-26T14:09:55;8.00;99.90
51825;DHT22;37879;52.986;6.282;2023-03-26T14:17:57;7.90;99.90
51825;DHT22;37879;52.986;6.282;2023-03-26T14:20:48;7.80;99.90
51825;DHT22;37879;52.986;6.282;2023-03-26T14:32:17;6.30;99.90
51825;DHT22;37879;52.986;6.282;2023-03-26T14:43:13;7.70;99.90
51825;DHT22;37879;52.986;6.282;2023-03-26T14:53:43;7.70;99.90
51825;DHT22;37879;52.986;6.282;2023-03-26T14:56:41;7.60;99.90
51825;DHT22;37879;52.986;6.282;2023-03-26T15:25:39;7.40;99.90
51825;DHT22;37879;52.986;6.282;2023-03-26T15:42:24;7.20;99.90
51825;DHT22;37879;52.986;6.282;2023-03-26T15:45:12;7.20;99.90
51825;DHT22;37879;52.986;6.282;2023-03-26T15:50:51;7.30;99.90
51825;DHT22;37879;52.986;6.282;2023-03-26T16:01:58;7.10;99.90
51825;DHT22;37879;52.986;6.282;2023-03-26T16:04:39;7.10;99.90
51825;DHT22;37879;52.986;6.282;2023-03-26T16:18:54;6.70;99.90
51825;DHT22;37879;52.986;6.282;2023-03-26T16:31:27;6.80;99.90
51825;DHT22;37879;52.986;6.282;2023-03-26T16:36:37;6.70;99.90
51825;DHT22;37879;52.986;6.282;2023-03-26T16:39:20;6.60;99.90
51825;DHT22;37879;52.986;6.282;2023-03-26T16:42:03;6.60;99.90
51825;DHT22;37879;52.986;6.282;2023-03-26T16:52:49;6.40;99.90
51825;DHT22;37879;52.986;6.282;2023-03-26T16:55:38;7.30;99.90
51825;DHT22;37879;52.986;6.282;2023-03-26T17:06:35;6.30;99.90
51825;DHT22;37879;52.986;6.282;2023-03-26T17:12:15;6.40;99.90
51825;DHT22;37879;52.986;6.282;2023-03-26T17:15:06;6.40;99.90
51825;DHT22;37879;52.986;6.282;2023-03-26T17:23:54;6.30;99.90
51825;DHT22;37879;52.986;6.282;2023-03-26T17:26:30;6.40;99.90
51825;DHT22;37879;52.986;6.282;2023-03-26T17:29:23;6.30;99.90
51825;DHT22;37879;52.986;6.282;2023-03-26T17:32:08;6.30;99.90
51825;DHT22;37879;52.986;6.282;2023-03-26T17:42:34;5.90;99.90
51825;DHT22;37879;52.986;6.282;2023-03-26T17:45:08;5.90;99.90
51825;DHT22;37879;52.986;6.282;2023-03-26T17:47:47;5.90;99.90
51825;DHT22;37879;52.986;6.282;2023-03-26T17:50:30;5.80;99.90
51825;DHT22;37879;52.986;6.282;2023-03-26T17:53:09;5.80;99.90
51825;DHT22;37879;52.986;6.282;2023-03-26T17:55:37;5.80;99.90
51825;DHT22;37879;52.986;6.282;2023-03-26T17:58:27;5.70;99.90
51825;DHT22;37879;52.986;6.282;2023-03-26T18:01:04;5.60;99.90
51825;DHT22;37879;52.986;6.282;2023-03-26T18:03:38;5.60;99.90
51825;DHT22;37879;52.986;6.282;2023-03-26T18:06:13;6.30;99.90
51825;DHT22;37879;52.986;6.282;2023-03-26T18:14:33;5.40;99.90
51825;DHT22;37879;52.986;6.282;2023-03-26T18:17:05;5.40;99.90
51825;DHT22;37879;52.986;6.282;2023-03-26T18:19:45;5.30;99.90
51825;DHT22;37879;52.986;6.282;2023-03-26T18:22:18;5.30;99.90
51825;DHT22;37879;52.986;6.282;2023-03-26T18:24:44;5.30;99.90
51825;DHT22;37879;52.986;6.282;2023-03-26T18:27:13;7.10;99.90
51825;DHT22;37879;52.986;6.282;2023-03-26T18:32:22;5.20;99.90
51825;DHT22;37879;52.986;6.282;2023-03-26T18:34:53;5.20;99.90
51825;DHT22;37879;52.986;6.282;2023-03-26T18:37:32;5.30;99.90
51825;DHT22;37879;52.986;6.282;2023-03-26T18:42:43;5.00;99.90
51825;DHT22;37879;52.986;6.282;2023-03-26T18:47:48;4.90;99.90
51825;DHT22;37879;52.986;6.282;2023-03-26T18:50:22;5.20;99.90
51825;DHT22;37879;52.986;6.282;2023-03-26T18:52:49;4.80;99.90
51825;DHT22;37879;52.986;6.282;2023-03-26T18:55:15;4.80;99.90
51825;DHT22;37879;52.986;6.282;2023-03-26T18:57:42;4.70;99.90
51825;DHT22;37879;52.986;6.282;2023-03-26T19:00:17;4.60;99.90
51825;DHT22;37879;52.986;6.282;2023-03-26T19:02:46;4.60;99.90
51825;DHT22;37879;52.986;6.282;2023-03-26T19:05:15;4.50;99.90
51825;DHT22;37879;52.986;6.282;2023-03-26T19:07:43;4.50;99.90
51825;DHT22;37879;52.986;6.282;2023-03-26T19:10:15;4.50;99.90
51825;DHT22;37879;52.986;6.282;2023-03-26T19:12:43;4.50;99.90
51825;DHT22;37879;52.986;6.282;2023-03-26T19:15:15;4.40;99.90
51825;DHT22;37879;52.986;6.282;2023-03-26T19:17:41;4.40;99.90
51825;DHT22;37879;52.986;6.282;2023-03-26T19:20:24;4.40;99.90
51825;DHT22;37879;52.986;6.282;2023-03-26T19:22:51;4.30;99.90
51825;DHT22;37879;52.986;6.282;2023-03-26T19:25:42;4.30;99.90
51825;DHT22;37879;52.986;6.282;2023-03-26T19:28:22;4.30;99.90
51825;DHT22;37879;52.986;6.282;2023-03-26T19:30:55;4.30;99.90
51825;DHT22;37879;52.986;6.282;2023-03-26T19:33:23;4.30;99.90
51825;DHT22;37879;52.986;6.282;2023-03-26T19:35:53;4.40;99.90
51825;DHT22;37879;52.986;6.282;2023-03-26T19:38:26;4.50;99.90
51825;DHT22;37879;52.986;6.282;2023-03-26T19:40:56;4.30;99.90
51825;DHT22;37879;52.986;6.282;2023-03-26T19:43:23;4.30;99.90
51825;DHT22;37879;52.986;6.282;2023-03-26T19:45:50;5.10;99.90
51825;DHT22;37879;52.986;6.282;2023-03-26T19:48:19;4.30;99.90
51825;DHT22;37879;52.986;6.282;2023-03-26T19:51:02;4.20;99.90
51825;DHT22;37879;52.986;6.282;2023-03-26T19:53:34;4.20;99.90
51825;DHT22;37879;52.986;6.282;2023-03-26T19:58:34;4.90;99.90
51825;DHT22;37879;52.986;6.282;2023-03-26T20:01:01;4.10;99.90
51825;DHT22;37879;52.986;6.282;2023-03-26T20:03:29;4.00;99.90
51825;DHT22;37879;52.986;6.282;2023-03-26T20:05:54;4.00;99.90
51825;DHT22;37879;52.986;6.282;2023-03-26T20:08:20;4.00;99.90
51825;DHT22;37879;52.986;6.282;2023-03-26T20:10:51;3.90;99.90
51825;DHT22;37879;52.986;6.282;2023-03-26T20:13:17;3.80;99.90
51825;DHT22;37879;52.986;6.282;2023-03-26T20:15:57;4.30;99.90
51825;DHT22;37879;52.986;6.282;2023-03-26T20:18:26;3.70;99.90
51825;DHT22;37879;52.986;6.282;2023-03-26T20:20:52;3.80;99.90
51825;DHT22;37879;52.986;6.282;2023-03-26T20:23:18;3.60;99.90
51825;DHT22;37879;52.986;6.282;2023-03-26T20:25:48;3.70;99.90
51825;DHT22;37879;52.986;6.282;2023-03-26T20:28:17;3.70;99.90
51825;DHT22;37879;52.986;6.282;2023-03-26T20:30:47;3.70;99.90
51825;DHT22;37879;52.986;6.282;2023-03-26T20:33:20;3.70;99.90
51825;DHT22;37879;52.986;6.282;2023-03-26T20:35:46;3.80;99.90
51825;DHT22;37879;52.986;6.282;2023-03-26T20:38:12;3.90;99.90
51825;DHT22;37879;52.986;6.282;2023-03-26T20:40:38;3.80;99.90
51825;DHT22;37879;52.986;6.282;2023-03-26T20:43:10;4.70;99.90
51825;DHT22;37879;52.986;6.282;2023-03-26T20:45:36;3.80;99.90
51825;DHT22;37879;52.986;6.282;2023-03-26T20:48:02;3.70;99.90
51825;DHT22;37879;52.986;6.282;2023-03-26T20:50:28;3.70;99.90
51825;DHT22;37879;52.986;6.282;2023-03-26T20:52:53;3.70;99.90
51825;DHT22;37879;52.986;6.282;2023-03-26T20:55:19;4.80;99.90
51825;DHT22;37879;52.986;6.282;2023-03-26T20:57:46;3.60;99.90
51825;DHT22;37879;52.986;6.282;2023-03-26T21:00:14;3.60;99.90
51825;DHT22;37879;52.986;6.282;2023-03-26T21:02:52;3.60;99.90
51825;DHT22;37879;52.986;6.282;2023-03-26T21:05:24;3.60;99.90
51825;DHT22;37879;52.986;6.282;2023-03-26T21:07:55;3.50;99.90
51825;DHT22;37879;52.986;6.282;2023-03-26T21:10:21;3.50;99.90
51825;DHT22;37879;52.986;6.282;2023-03-26T21:13:18;3.50;99.90
51825;DHT22;37879;52.986;6.282;2023-03-26T21:15:49;3.50;99.90
51825;DHT22;37879;52.986;6.282;2023-03-26T21:18:15;3.40;99.90
51825;DHT22;37879;52.986;6.282;2023-03-26T21:20:43;3.40;99.90
51825;DHT22;37879;52.986;6.282;2023-03-26T21:24:15;3.40;99.90
51825;DHT22;37879;52.986;6.282;2023-03-26T21:26:16;3.40;99.90
51825;DHT22;37879;52.986;6.282;2023-03-26T21:28:46;3.40;99.90
51825;DHT22;37879;52.986;6.282;2023-03-26T21:31:21;3.50;99.90
51825;DHT22;37879;52.986;6.282;2023-03-26T21:33:49;3.40;99.90
51825;DHT22;37879;52.986;6.282;2023-03-26T21:36:17;3.40;99.90
51825;DHT22;37879;52.986;6.282;2023-03-26T21:38:44;3.40;99.90
51825;DHT22;37879;52.986;6.282;2023-03-26T21:43:49;3.40;99.90
51825;DHT22;37879;52.986;6.282;2023-03-26T21:46:15;3.30;99.90
51825;DHT22;37879;52.986;6.282;2023-03-26T21:48:41;3.20;99.90
51825;DHT22;37879;52.986;6.282;2023-03-26T21:51:09;2.90;99.90
51825;DHT22;37879;52.986;6.282;2023-03-26T21:53:40;2.90;99.90
51825;DHT22;37879;52.986;6.282;2023-03-26T22:02:18;2.90;99.90
51825;DHT22;37879;52.986;6.282;2023-03-26T22:05:01;2.90;99.90
51825;DHT22;37879;52.986;6.282;2023-03-26T22:10:12;2.90;99.90
51825;DHT22;37879;52.986;6.282;2023-03-26T22:12:38;2.90;99.90